sensor_id;sensor_type;location;lat;lon;timestamp;P1;durP1;ratioP1;P2;durP2;ratioP2
39128;SDS011;24864;49.940;19.770;2023-10-08T00:01:10;12.90;;;4.13;;
39128;SDS011;24864;49.940;19.770;2023-10-08T00:03:41;16.08;;;4.07;;
39128;SDS011;24864;49.940;19.770;2023-10-08T00:06:15;14.98;;;4.15;;
39128;SDS011;24864;49.940;19.770;2023-10-08T00:08:46;11.88;;;3.88;;
39128;SDS011;24864;49.940;19.770;2023-10-08T00:11:16;7.20;;;3.42;;
39128;SDS011;24864;49.940;19.770;2023-10-08T00:13:44;8.90;;;3.47;;
39128;SDS011;24864;49.940;19.770;2023-10-08T00:16:16;9.95;;;4.50;;
39128;SDS011;24864;49.940;19.770;2023-10-08T00:18:45;12.73;;;4.00;;
39128;SDS011;24864;49.940;19.770;2023-10-08T00:21:19;9.93;;;3.83;;
39128;SDS011;24864;49.940;19.770;2023-10-08T00:23:53;10.35;;;4.65;;
39128;SDS011;24864;49.940;19.770;2023-10-08T00:26:28;10.57;;;4.07;;
39128;SDS011;24864;49.940;19.770;2023-10-08T00:28:59;14.48;;;4.45;;
39128;SDS011;24864;49.940;19.770;2023-10-08T00:31:33;17.08;;;3.50;;
39128;SDS011;24864;49.940;19.770;2023-10-08T00:34:07;13.65;;;4.45;;
39128;SDS011;24864;49.940;19.770;2023-10-08T00:36:39;13.90;;;4.60;;
39128;SDS011;24864;49.940;19.770;2023-10-08T00:39:08;13.50;;;4.68;;
39128;SDS011;24864;49.940;19.770;2023-10-08T00:41:42;18.35;;;4.18;;
39128;SDS011;24864;49.940;19.770;2023-10-08T00:44:11;13.18;;;4.25;;
39128;SDS011;24864;49.940;19.770;2023-10-08T00:46:43;11.20;;;3.78;;
39128;SDS011;24864;49.940;19.770;2023-10-08T00:49:15;13.48;;;4.07;;
39128;SDS011;24864;49.940;19.770;2023-10-08T00:51:53;10.40;;;4.13;;
39128;SDS011;24864;49.940;19.770;2023-10-08T00:54:30;8.98;;;4.10;;
39128;SDS011;24864;49.940;19.770;2023-10-08T00:57:02;14.07;;;4.88;;
39128;SDS011;24864;49.940;19.770;2023-10-08T00:59:32;8.93;;;4.68;;
39128;SDS011;24864;49.940;19.770;2023-10-08T01:02:09;13.30;;;4.85;;
39128;SDS011;24864;49.940;19.770;2023-10-08T01:04:41;19.83;;;5.95;;
39128;SDS011;24864;49.940;19.770;2023-10-08T01:07:12;13.30;;;4.78;;
39128;SDS011;24864;49.940;19.770;2023-10-08T01:09:42;15.60;;;5.53;;
39128;SDS011;24864;49.940;19.770;2023-10-08T01:12:19;13.48;;;5.60;;
39128;SDS011;24864;49.940;19.770;2023-10-08T01:14:49;14.57;;;5.35;;
39128;SDS011;24864;49.940;19.770;2023-10-08T01:17:21;11.30;;;5.43;;
39128;SDS011;24864;49.940;19.770;2023-10-08T01:19:52;16.35;;;5.65;;
39128;SDS011;24864;49.940;19.770;2023-10-08T01:22:28;14.75;;;5.80;;
39128;SDS011;24864;49.940;19.770;2023-10-08T01:24:59;10.68;;;5.72;;
39128;SDS011;24864;49.940;19.770;2023-10-08T01:27:30;12.25;;;6.90;;
39128;SDS011;24864;49.940;19.770;2023-10-08T01:30:01;12.50;;;6.85;;
39128;SDS011;24864;49.940;19.770;2023-10-08T01:32:42;13.07;;;6.45;;
39128;SDS011;24864;49.940;19.770;2023-10-08T01:35:10;17.30;;;7.65;;
39128;SDS011;24864;49.940;19.770;2023-10-08T01:37:51;17.08;;;7.10;;
39128;SDS011;24864;49.940;19.770;2023-10-08T01:40:23;18.13;;;7.07;;
39128;SDS011;24864;49.940;19.770;2023-10-08T01:42:51;13.68;;;7.15;;
39128;SDS011;24864;49.940;19.770;2023-10-08T01:45:19;17.83;;;7.85;;
39128;SDS011;24864;49.940;19.770;2023-10-08T01:47:51;14.57;;;7.75;;
39128;SDS011;24864;49.940;19.770;2023-10-08T01:50:22;12.48;;;7.57;;
39128;SDS011;24864;49.940;19.770;2023-10-08T01:52:53;14.55;;;8.63;;
39128;SDS011;24864;49.940;19.770;2023-10-08T01:55:21;14.68;;;8.80;;
39128;SDS011;24864;49.940;19.770;2023-10-08T01:57:50;13.90;;;9.00;;
39128;SDS011;24864;49.940;19.770;2023-10-08T02:00:18;13.23;;;6.43;;
39128;SDS011;24864;49.940;19.770;2023-10-08T02:02:48;8.27;;;5.70;;
39128;SDS011;24864;49.940;19.770;2023-10-08T02:05:17;8.52;;;5.57;;
39128;SDS011;24864;49.940;19.770;2023-10-08T02:07:47;6.97;;;3.92;;
39128;SDS011;24864;49.940;19.770;2023-10-08T02:10:18;4.90;;;3.80;;
39128;SDS011;24864;49.940;19.770;2023-10-08T02:12:49;6.00;;;3.08;;
39128;SDS011;24864;49.940;19.770;2023-10-08T02:15:17;5.88;;;2.45;;
39128;SDS011;24864;49.940;19.770;2023-10-08T02:17:45;3.85;;;2.47;;
39128;SDS011;24864;49.940;19.770;2023-10-08T02:20:14;5.05;;;2.20;;
39128;SDS011;24864;49.940;19.770;2023-10-08T02:22:43;2.33;;;2.00;;
39128;SDS011;24864;49.940;19.770;2023-10-08T02:25:11;3.20;;;1.83;;
39128;SDS011;24864;49.940;19.770;2023-10-08T02:27:41;1.85;;;1.42;;
39128;SDS011;24864;49.940;19.770;2023-10-08T02:30:10;3.42;;;2.28;;
39128;SDS011;24864;49.940;19.770;2023-10-08T02:32:39;0.50;;;0.50;;
39128;SDS011;24864;49.940;19.770;2023-10-08T02:35:09;0.35;;;0.30;;
39128;SDS011;24864;49.940;19.770;2023-10-08T02:37:40;0.20;;;0.20;;
39128;SDS011;24864;49.940;19.770;2023-10-08T02:40:09;0.73;;;0.40;;
39128;SDS011;24864;49.940;19.770;2023-10-08T02:42:47;3.35;;;0.32;;
39128;SDS011;24864;49.940;19.770;2023-10-08T02:45:16;0.50;;;0.40;;
39128;SDS011;24864;49.940;19.770;2023-10-08T02:47:45;1.88;;;0.70;;
39128;SDS011;24864;49.940;19.770;2023-10-08T02:50:13;0.70;;;0.70;;
39128;SDS011;24864;49.940;19.770;2023-10-08T02:52:44;1.92;;;1.30;;
39128;SDS011;24864;49.940;19.770;2023-10-08T02:55:12;2.58;;;1.80;;
39128;SDS011;24864;49.940;19.770;2023-10-08T02:57:54;2.45;;;1.60;;
39128;SDS011;24864;49.940;19.770;2023-10-08T03:00:23;2.38;;;1.95;;
39128;SDS011;24864;49.940;19.770;2023-10-08T03:02:57;4.28;;;2.03;;
39128;SDS011;24864;49.940;19.770;2023-10-08T03:05:28;2.88;;;2.58;;
39128;SDS011;24864;49.940;19.770;2023-10-08T03:08:03;2.70;;;1.83;;
39128;SDS011;24864;49.940;19.770;2023-10-08T03:10:38;2.97;;;2.33;;
39128;SDS011;24864;49.940;19.770;2023-10-08T03:13:09;3.90;;;2.40;;
39128;SDS011;24864;49.940;19.770;2023-10-08T03:15:40;5.30;;;2.37;;
39128;SDS011;24864;49.940;19.770;2023-10-08T03:18:14;8.93;;;3.05;;
39128;SDS011;24864;49.940;19.770;2023-10-08T03:20:42;4.18;;;2.15;;
39128;SDS011;24864;49.940;19.770;2023-10-08T03:23:13;3.05;;;2.75;;
39128;SDS011;24864;49.940;19.770;2023-10-08T03:25:59;5.22;;;2.50;;
39128;SDS011;24864;49.940;19.770;2023-10-08T03:28:37;8.77;;;4.90;;
39128;SDS011;24864;49.940;19.770;2023-10-08T03:31:08;5.60;;;2.83;;
39128;SDS011;24864;49.940;19.770;2023-10-08T03:33:43;3.53;;;1.13;;
39128;SDS011;24864;49.940;19.770;2023-10-08T03:36:15;0.77;;;0.63;;
39128;SDS011;24864;49.940;19.770;2023-10-08T03:38:49;0.55;;;0.32;;
39128;SDS011;24864;49.940;19.770;2023-10-08T03:41:23;0.77;;;0.30;;
39128;SDS011;24864;49.940;19.770;2023-10-08T03:43:57;1.20;;;0.30;;
39128;SDS011;24864;49.940;19.770;2023-10-08T03:46:32;0.80;;;0.55;;
39128;SDS011;24864;49.940;19.770;2023-10-08T03:49:06;1.45;;;0.32;;
39128;SDS011;24864;49.940;19.770;2023-10-08T03:51:41;0.22;;;0.20;;
39128;SDS011;24864;49.940;19.770;2023-10-08T03:54:09;0.30;;;0.20;;
39128;SDS011;24864;49.940;19.770;2023-10-08T03:56:43;0.80;;;0.28;;
39128;SDS011;24864;49.940;19.770;2023-10-08T03:59:17;0.30;;;0.30;;
39128;SDS011;24864;49.940;19.770;2023-10-08T04:01:57;0.30;;;0.30;;
39128;SDS011;24864;49.940;19.770;2023-10-08T04:04:36;0.20;;;0.10;;
39128;SDS011;24864;49.940;19.770;2023-10-08T04:07:17;1.55;;;0.30;;
39128;SDS011;24864;49.940;19.770;2023-10-08T04:10:06;2.90;;;0.38;;
39128;SDS011;24864;49.940;19.770;2023-10-08T04:13:08;1.65;;;0.40;;
39128;SDS011;24864;49.940;19.770;2023-10-08T04:15:38;0.55;;;0.35;;
39128;SDS011;24864;49.940;19.770;2023-10-08T04:18:07;0.80;;;0.40;;
39128;SDS011;24864;49.940;19.770;2023-10-08T04:20:36;0.45;;;0.40;;
39128;SDS011;24864;49.940;19.770;2023-10-08T04:23:06;2.70;;;0.73;;
39128;SDS011;24864;49.940;19.770;2023-10-08T04:25:41;6.50;;;1.65;;
39128;SDS011;24864;49.940;19.770;2023-10-08T04:28:09;1.48;;;0.50;;
39128;SDS011;24864;49.940;19.770;2023-10-08T04:30:42;0.88;;;0.30;;
39128;SDS011;24864;49.940;19.770;2023-10-08T04:33:14;0.63;;;0.45;;
39128;SDS011;24864;49.940;19.770;2023-10-08T04:35:43;1.13;;;0.30;;
39128;SDS011;24864;49.940;19.770;2023-10-08T04:38:19;1.60;;;0.40;;
39128;SDS011;24864;49.940;19.770;2023-10-08T04:40:50;2.10;;;0.40;;
39128;SDS011;24864;49.940;19.770;2023-10-08T04:43:19;1.45;;;0.50;;
39128;SDS011;24864;49.940;19.770;2023-10-08T04:45:54;2.20;;;0.55;;
39128;SDS011;24864;49.940;19.770;2023-10-08T04:48:23;0.77;;;0.40;;
39128;SDS011;24864;49.940;19.770;2023-10-08T04:50:53;2.78;;;0.70;;
39128;SDS011;24864;49.940;19.770;2023-10-08T04:53:25;2.40;;;0.75;;
39128;SDS011;24864;49.940;19.770;2023-10-08T04:56:05;2.15;;;0.80;;
39128;SDS011;24864;49.940;19.770;2023-10-08T04:58:40;1.40;;;0.80;;
39128;SDS011;24864;49.940;19.770;2023-10-08T05:01:14;3.20;;;0.65;;
39128;SDS011;24864;49.940;19.770;2023-10-08T05:03:47;4.30;;;1.05;;
39128;SDS011;24864;49.940;19.770;2023-10-08T05:06:34;4.78;;;1.10;;
39128;SDS011;24864;49.940;19.770;2023-10-08T05:09:27;1.60;;;0.63;;
39128;SDS011;24864;49.940;19.770;2023-10-08T05:12:12;4.72;;;1.05;;
39128;SDS011;24864;49.940;19.770;2023-10-08T05:14:56;4.40;;;0.98;;
39128;SDS011;24864;49.940;19.770;2023-10-08T05:17:49;4.22;;;1.52;;
39128;SDS011;24864;49.940;19.770;2023-10-08T05:20:24;5.13;;;1.33;;
39128;SDS011;24864;49.940;19.770;2023-10-08T05:23:25;4.45;;;0.88;;
39128;SDS011;24864;49.940;19.770;2023-10-08T05:26:10;3.85;;;0.90;;
39128;SDS011;24864;49.940;19.770;2023-10-08T05:28:47;6.55;;;1.00;;
39128;SDS011;24864;49.940;19.770;2023-10-08T05:31:27;4.28;;;1.77;;
39128;SDS011;24864;49.940;19.770;2023-10-08T05:34:15;4.15;;;1.17;;
39128;SDS011;24864;49.940;19.770;2023-10-08T05:36:44;5.10;;;1.10;;
39128;SDS011;24864;49.940;19.770;2023-10-08T05:39:40;4.60;;;1.38;;
39128;SDS011;24864;49.940;19.770;2023-10-08T05:42:09;4.60;;;1.30;;
39128;SDS011;24864;49.940;19.770;2023-10-08T05:44:44;6.38;;;1.02;;
39128;SDS011;24864;49.940;19.770;2023-10-08T05:47:13;7.63;;;1.33;;
39128;SDS011;24864;49.940;19.770;2023-10-08T05:50:06;4.70;;;1.35;;
39128;SDS011;24864;49.940;19.770;2023-10-08T05:52:51;5.13;;;1.27;;
39128;SDS011;24864;49.940;19.770;2023-10-08T05:55:29;2.45;;;1.35;;
39128;SDS011;24864;49.940;19.770;2023-10-08T05:58:02;5.63;;;1.45;;
39128;SDS011;24864;49.940;19.770;2023-10-08T06:00:41;4.78;;;1.30;;
39128;SDS011;24864;49.940;19.770;2023-10-08T06:03:27;2.42;;;1.05;;
39128;SDS011;24864;49.940;19.770;2023-10-08T06:06:17;2.78;;;1.45;;
39128;SDS011;24864;49.940;19.770;2023-10-08T06:09:02;6.28;;;2.67;;
39128;SDS011;24864;49.940;19.770;2023-10-08T06:11:47;6.65;;;1.73;;
39128;SDS011;24864;49.940;19.770;2023-10-08T06:14:34;6.35;;;1.70;;
39128;SDS011;24864;49.940;19.770;2023-10-08T06:17:34;9.25;;;1.90;;
39128;SDS011;24864;49.940;19.770;2023-10-08T06:20:24;12.40;;;2.10;;
39128;SDS011;24864;49.940;19.770;2023-10-08T06:22:55;8.68;;;2.50;;
39128;SDS011;24864;49.940;19.770;2023-10-08T06:25:30;10.30;;;3.08;;
39128;SDS011;24864;49.940;19.770;2023-10-08T06:27:58;7.40;;;3.10;;
39128;SDS011;24864;49.940;19.770;2023-10-08T06:30:29;10.48;;;3.08;;
39128;SDS011;24864;49.940;19.770;2023-10-08T06:33:02;7.45;;;2.60;;
39128;SDS011;24864;49.940;19.770;2023-10-08T06:35:31;8.88;;;2.95;;
39128;SDS011;24864;49.940;19.770;2023-10-08T06:38:01;9.73;;;2.95;;
39128;SDS011;24864;49.940;19.770;2023-10-08T06:40:34;13.52;;;3.70;;
39128;SDS011;24864;49.940;19.770;2023-10-08T06:43:10;7.88;;;2.90;;
39128;SDS011;24864;49.940;19.770;2023-10-08T06:45:48;12.25;;;3.55;;
39128;SDS011;24864;49.940;19.770;2023-10-08T06:48:20;9.95;;;3.78;;
39128;SDS011;24864;49.940;19.770;2023-10-08T06:50:50;7.82;;;3.35;;
39128;SDS011;24864;49.940;19.770;2023-10-08T06:53:25;7.05;;;3.35;;
39128;SDS011;24864;49.940;19.770;2023-10-08T06:55:56;9.80;;;3.63;;
39128;SDS011;24864;49.940;19.770;2023-10-08T06:58:30;12.52;;;3.88;;
39128;SDS011;24864;49.940;19.770;2023-10-08T07:00:59;12.23;;;4.85;;
39128;SDS011;24864;49.940;19.770;2023-10-08T07:03:32;12.60;;;3.63;;
39128;SDS011;24864;49.940;19.770;2023-10-08T07:06:01;7.38;;;3.55;;
39128;SDS011;24864;49.940;19.770;2023-10-08T07:08:43;13.50;;;4.15;;
39128;SDS011;24864;49.940;19.770;2023-10-08T07:11:13;9.63;;;2.90;;
39128;SDS011;24864;49.940;19.770;2023-10-08T07:13:44;10.60;;;3.63;;
39128;SDS011;24864;49.940;19.770;2023-10-08T07:16:13;9.00;;;3.40;;
39128;SDS011;24864;49.940;19.770;2023-10-08T07:18:44;10.07;;;3.15;;
39128;SDS011;24864;49.940;19.770;2023-10-08T07:21:17;7.75;;;2.92;;
39128;SDS011;24864;49.940;19.770;2023-10-08T07:23:57;7.30;;;3.33;;
39128;SDS011;24864;49.940;19.770;2023-10-08T07:26:26;11.30;;;5.28;;
39128;SDS011;24864;49.940;19.770;2023-10-08T07:29:04;9.95;;;3.92;;
39128;SDS011;24864;49.940;19.770;2023-10-08T07:31:35;7.15;;;3.88;;
39128;SDS011;24864;49.940;19.770;2023-10-08T07:34:04;9.43;;;3.58;;
39128;SDS011;24864;49.940;19.770;2023-10-08T07:36:45;10.20;;;4.13;;
39128;SDS011;24864;49.940;19.770;2023-10-08T07:39:17;13.02;;;4.15;;
39128;SDS011;24864;49.940;19.770;2023-10-08T07:42:03;7.28;;;4.05;;
39128;SDS011;24864;49.940;19.770;2023-10-08T07:44:34;6.47;;;3.97;;
39128;SDS011;24864;49.940;19.770;2023-10-08T07:47:03;5.53;;;3.13;;
39128;SDS011;24864;49.940;19.770;2023-10-08T07:49:37;7.78;;;3.10;;
39128;SDS011;24864;49.940;19.770;2023-10-08T07:52:05;7.65;;;3.22;;
39128;SDS011;24864;49.940;19.770;2023-10-08T07:54:35;7.55;;;3.28;;
39128;SDS011;24864;49.940;19.770;2023-10-08T07:57:03;7.55;;;3.13;;
39128;SDS011;24864;49.940;19.770;2023-10-08T07:59:39;6.95;;;2.60;;
39128;SDS011;24864;49.940;19.770;2023-10-08T08:02:13;9.77;;;3.75;;
39128;SDS011;24864;49.940;19.770;2023-10-08T08:04:44;6.45;;;3.08;;
39128;SDS011;24864;49.940;19.770;2023-10-08T08:07:17;11.88;;;3.50;;
39128;SDS011;24864;49.940;19.770;2023-10-08T08:09:49;6.10;;;3.70;;
39128;SDS011;24864;49.940;19.770;2023-10-08T08:12:19;12.02;;;4.55;;
39128;SDS011;24864;49.940;19.770;2023-10-08T08:14:52;8.55;;;3.83;;
39128;SDS011;24864;49.940;19.770;2023-10-08T08:17:20;6.53;;;4.20;;
39128;SDS011;24864;49.940;19.770;2023-10-08T08:19:50;7.65;;;3.80;;
39128;SDS011;24864;49.940;19.770;2023-10-08T08:22:20;11.93;;;4.88;;
39128;SDS011;24864;49.940;19.770;2023-10-08T08:24:51;9.10;;;5.72;;
39128;SDS011;24864;49.940;19.770;2023-10-08T08:27:24;9.32;;;4.38;;
39128;SDS011;24864;49.940;19.770;2023-10-08T08:30:00;9.50;;;4.00;;
39128;SDS011;24864;49.940;19.770;2023-10-08T08:32:38;6.88;;;3.30;;
39128;SDS011;24864;49.940;19.770;2023-10-08T08:35:07;8.90;;;3.05;;
39128;SDS011;24864;49.940;19.770;2023-10-08T08:37:36;5.93;;;2.78;;
39128;SDS011;24864;49.940;19.770;2023-10-08T08:40:08;8.50;;;3.45;;
39128;SDS011;24864;49.940;19.770;2023-10-08T08:42:44;6.07;;;3.67;;
39128;SDS011;24864;49.940;19.770;2023-10-08T08:45:13;6.13;;;3.45;;
39128;SDS011;24864;49.940;19.770;2023-10-08T08:47:45;9.02;;;3.42;;
39128;SDS011;24864;49.940;19.770;2023-10-08T08:50:14;7.78;;;3.50;;
39128;SDS011;24864;49.940;19.770;2023-10-08T08:52:44;6.13;;;3.60;;
39128;SDS011;24864;49.940;19.770;2023-10-08T08:55:14;8.20;;;4.25;;
39128;SDS011;24864;49.940;19.770;2023-10-08T08:57:46;7.97;;;3.87;;
39128;SDS011;24864;49.940;19.770;2023-10-08T09:00:16;5.57;;;3.65;;
39128;SDS011;24864;49.940;19.770;2023-10-08T09:02:45;8.57;;;4.95;;
39128;SDS011;24864;49.940;19.770;2023-10-08T09:05:15;8.63;;;4.88;;
39128;SDS011;24864;49.940;19.770;2023-10-08T09:07:54;9.07;;;3.42;;
39128;SDS011;24864;49.940;19.770;2023-10-08T09:10:25;7.10;;;3.85;;
39128;SDS011;24864;49.940;19.770;2023-10-08T09:12:55;6.65;;;3.70;;
39128;SDS011;24864;49.940;19.770;2023-10-08T09:15:26;9.82;;;4.00;;
39128;SDS011;24864;49.940;19.770;2023-10-08T09:17:54;8.43;;;3.72;;
39128;SDS011;24864;49.940;19.770;2023-10-08T09:20:24;7.32;;;3.45;;
39128;SDS011;24864;49.940;19.770;2023-10-08T09:23:04;12.10;;;3.40;;
39128;SDS011;24864;49.940;19.770;2023-10-08T09:25:36;6.47;;;2.90;;
39128;SDS011;24864;49.940;19.770;2023-10-08T09:28:04;3.50;;;2.38;;
39128;SDS011;24864;49.940;19.770;2023-10-08T09:30:34;5.13;;;2.33;;
39128;SDS011;24864;49.940;19.770;2023-10-08T09:33:05;5.03;;;2.55;;
39128;SDS011;24864;49.940;19.770;2023-10-08T09:35:34;5.68;;;3.05;;
39128;SDS011;24864;49.940;19.770;2023-10-08T09:38:04;7.22;;;3.03;;
39128;SDS011;24864;49.940;19.770;2023-10-08T09:40:37;3.60;;;2.17;;
39128;SDS011;24864;49.940;19.770;2023-10-08T09:43:07;5.63;;;2.38;;
39128;SDS011;24864;49.940;19.770;2023-10-08T09:45:38;7.15;;;2.30;;
39128;SDS011;24864;49.940;19.770;2023-10-08T09:48:10;5.38;;;3.33;;
39128;SDS011;24864;49.940;19.770;2023-10-08T09:50:40;7.20;;;3.25;;
39128;SDS011;24864;49.940;19.770;2023-10-08T09:53:09;7.55;;;2.67;;
39128;SDS011;24864;49.940;19.770;2023-10-08T09:55:46;4.32;;;2.42;;
39128;SDS011;24864;49.940;19.770;2023-10-08T09:58:20;7.05;;;3.00;;
39128;SDS011;24864;49.940;19.770;2023-10-08T10:00:52;5.28;;;2.30;;
39128;SDS011;24864;49.940;19.770;2023-10-08T10:03:24;4.30;;;2.13;;
39128;SDS011;24864;49.940;19.770;2023-10-08T10:05:54;6.57;;;2.40;;
39128;SDS011;24864;49.940;19.770;2023-10-08T10:08:27;4.20;;;2.13;;
39128;SDS011;24864;49.940;19.770;2023-10-08T10:11:04;3.50;;;1.95;;
39128;SDS011;24864;49.940;19.770;2023-10-08T10:13:34;3.90;;;2.20;;
39128;SDS011;24864;49.940;19.770;2023-10-08T10:16:09;3.33;;;1.90;;
39128;SDS011;24864;49.940;19.770;2023-10-08T10:18:37;3.63;;;1.45;;
39128;SDS011;24864;49.940;19.770;2023-10-08T10:21:25;2.67;;;1.60;;
39128;SDS011;24864;49.940;19.770;2023-10-08T10:23:55;2.92;;;1.55;;
39128;SDS011;24864;49.940;19.770;2023-10-08T10:26:26;3.70;;;1.70;;
39128;SDS011;24864;49.940;19.770;2023-10-08T10:31:53;2.78;;;1.17;;
39128;SDS011;24864;49.940;19.770;2023-10-08T10:34:24;3.75;;;1.40;;
39128;SDS011;24864;49.940;19.770;2023-10-08T10:36:54;5.05;;;1.65;;
39128;SDS011;24864;49.940;19.770;2023-10-08T10:39:25;4.07;;;1.50;;
39128;SDS011;24864;49.940;19.770;2023-10-08T10:41:56;3.88;;;1.60;;
39128;SDS011;24864;49.940;19.770;2023-10-08T10:44:29;4.32;;;1.60;;
39128;SDS011;24864;49.940;19.770;2023-10-08T10:46:58;4.05;;;1.80;;
39128;SDS011;24864;49.940;19.770;2023-10-08T10:49:46;2.22;;;1.40;;
39128;SDS011;24864;49.940;19.770;2023-10-08T10:52:21;2.35;;;1.25;;
39128;SDS011;24864;49.940;19.770;2023-10-08T10:55:11;3.08;;;1.10;;
39128;SDS011;24864;49.940;19.770;2023-10-08T10:57:52;4.07;;;1.52;;
39128;SDS011;24864;49.940;19.770;2023-10-08T11:00:23;2.50;;;1.30;;
39128;SDS011;24864;49.940;19.770;2023-10-08T11:03:15;3.92;;;1.10;;
39128;SDS011;24864;49.940;19.770;2023-10-08T11:05:51;4.13;;;1.17;;
39128;SDS011;24864;49.940;19.770;2023-10-08T11:08:22;3.10;;;1.17;;
39128;SDS011;24864;49.940;19.770;2023-10-08T11:10:54;3.92;;;1.35;;
39128;SDS011;24864;49.940;19.770;2023-10-08T11:13:27;3.13;;;1.20;;
39128;SDS011;24864;49.940;19.770;2023-10-08T11:16:04;2.92;;;1.30;;
39128;SDS011;24864;49.940;19.770;2023-10-08T11:18:35;2.50;;;1.35;;
39128;SDS011;24864;49.940;19.770;2023-10-08T11:21:09;1.95;;;1.20;;
39128;SDS011;24864;49.940;19.770;2023-10-08T11:23:43;3.05;;;1.88;;
39128;SDS011;24864;49.940;19.770;2023-10-08T11:26:19;2.97;;;1.30;;
39128;SDS011;24864;49.940;19.770;2023-10-08T11:28:55;2.92;;;1.70;;
39128;SDS011;24864;49.940;19.770;2023-10-08T11:31:23;3.38;;;1.50;;
39128;SDS011;24864;49.940;19.770;2023-10-08T11:33:58;3.58;;;1.50;;
39128;SDS011;24864;49.940;19.770;2023-10-08T11:36:27;2.75;;;1.48;;
39128;SDS011;24864;49.940;19.770;2023-10-08T11:38:59;3.30;;;1.63;;
39128;SDS011;24864;49.940;19.770;2023-10-08T11:41:38;4.22;;;1.48;;
39128;SDS011;24864;49.940;19.770;2023-10-08T11:44:18;4.63;;;2.00;;
39128;SDS011;24864;49.940;19.770;2023-10-08T11:46:48;5.10;;;1.67;;
39128;SDS011;24864;49.940;19.770;2023-10-08T11:49:19;4.00;;;1.40;;
39128;SDS011;24864;49.940;19.770;2023-10-08T11:51:52;2.40;;;1.40;;
39128;SDS011;24864;49.940;19.770;2023-10-08T11:54:22;3.22;;;1.75;;
39128;SDS011;24864;49.940;19.770;2023-10-08T11:56:50;3.70;;;1.42;;
39128;SDS011;24864;49.940;19.770;2023-10-08T11:59:21;2.67;;;1.25;;
39128;SDS011;24864;49.940;19.770;2023-10-08T12:04:23;3.97;;;1.30;;
39128;SDS011;24864;49.940;19.770;2023-10-08T12:06:51;5.13;;;1.75;;
39128;SDS011;24864;49.940;19.770;2023-10-08T12:09:19;3.33;;;1.20;;
39128;SDS011;24864;49.940;19.770;2023-10-08T12:11:48;2.30;;;0.93;;
39128;SDS011;24864;49.940;19.770;2023-10-08T12:14:18;3.38;;;0.90;;
39128;SDS011;24864;49.940;19.770;2023-10-08T12:16:47;2.17;;;0.90;;
39128;SDS011;24864;49.940;19.770;2023-10-08T12:19:18;2.42;;;0.82;;
39128;SDS011;24864;49.940;19.770;2023-10-08T12:21:50;4.40;;;1.10;;
39128;SDS011;24864;49.940;19.770;2023-10-08T12:24:19;1.67;;;0.95;;
39128;SDS011;24864;49.940;19.770;2023-10-08T12:26:47;2.45;;;1.13;;
39128;SDS011;24864;49.940;19.770;2023-10-08T12:29:16;2.13;;;1.00;;
39128;SDS011;24864;49.940;19.770;2023-10-08T12:31:45;3.92;;;1.00;;
39128;SDS011;24864;49.940;19.770;2023-10-08T12:34:16;3.65;;;0.90;;
39128;SDS011;24864;49.940;19.770;2023-10-08T12:36:45;2.17;;;1.13;;
39128;SDS011;24864;49.940;19.770;2023-10-08T12:39:15;4.95;;;1.27;;
39128;SDS011;24864;49.940;19.770;2023-10-08T12:41:43;3.25;;;1.30;;
39128;SDS011;24864;49.940;19.770;2023-10-08T12:44:12;4.75;;;1.20;;
39128;SDS011;24864;49.940;19.770;2023-10-08T12:46:42;3.17;;;1.13;;
39128;SDS011;24864;49.940;19.770;2023-10-08T12:49:17;1.30;;;0.90;;
39128;SDS011;24864;49.940;19.770;2023-10-08T12:51:48;1.90;;;1.00;;
39128;SDS011;24864;49.940;19.770;2023-10-08T12:54:16;1.40;;;0.70;;
39128;SDS011;24864;49.940;19.770;2023-10-08T12:56:48;2.53;;;1.10;;
39128;SDS011;24864;49.940;19.770;2023-10-08T12:59:21;4.78;;;1.40;;
39128;SDS011;24864;49.940;19.770;2023-10-08T13:01:51;3.65;;;1.15;;
39128;SDS011;24864;49.940;19.770;2023-10-08T13:04:23;2.28;;;0.95;;
39128;SDS011;24864;49.940;19.770;2023-10-08T13:06:55;19.58;;;1.60;;
39128;SDS011;24864;49.940;19.770;2023-10-08T13:09:27;3.10;;;1.33;;
39128;SDS011;24864;49.940;19.770;2023-10-08T13:11:58;2.92;;;1.30;;
39128;SDS011;24864;49.940;19.770;2023-10-08T13:14:27;3.92;;;1.42;;
39128;SDS011;24864;49.940;19.770;2023-10-08T13:16:55;3.47;;;1.55;;
39128;SDS011;24864;49.940;19.770;2023-10-08T13:19:25;4.28;;;1.30;;
39128;SDS011;24864;49.940;19.770;2023-10-08T13:21:53;3.92;;;1.67;;
39128;SDS011;24864;49.940;19.770;2023-10-08T13:24:22;4.13;;;1.65;;
39128;SDS011;24864;49.940;19.770;2023-10-08T13:26:51;5.72;;;1.60;;
39128;SDS011;24864;49.940;19.770;2023-10-08T13:29:20;2.78;;;1.33;;
39128;SDS011;24864;49.940;19.770;2023-10-08T13:31:48;4.47;;;1.42;;
39128;SDS011;24864;49.940;19.770;2023-10-08T13:34:16;4.10;;;1.40;;
39128;SDS011;24864;49.940;19.770;2023-10-08T13:36:46;2.83;;;1.52;;
39128;SDS011;24864;49.940;19.770;2023-10-08T13:39:16;2.15;;;0.93;;
39128;SDS011;24864;49.940;19.770;2023-10-08T13:41:46;2.30;;;1.10;;
39128;SDS011;24864;49.940;19.770;2023-10-08T13:44:15;3.22;;;1.10;;
39128;SDS011;24864;49.940;19.770;2023-10-08T13:46:45;5.95;;;1.27;;
39128;SDS011;24864;49.940;19.770;2023-10-08T13:49:16;4.50;;;1.37;;
39128;SDS011;24864;49.940;19.770;2023-10-08T13:51:47;3.47;;;1.48;;
39128;SDS011;24864;49.940;19.770;2023-10-08T13:54:23;3.10;;;1.20;;
39128;SDS011;24864;49.940;19.770;2023-10-08T13:56:55;4.72;;;0.80;;
39128;SDS011;24864;49.940;19.770;2023-10-08T13:59:26;4.20;;;1.58;;
39128;SDS011;24864;49.940;19.770;2023-10-08T14:04:28;2.45;;;0.90;;
39128;SDS011;24864;49.940;19.770;2023-10-08T14:06:59;3.63;;;1.00;;
39128;SDS011;24864;49.940;19.770;2023-10-08T14:09:29;2.42;;;1.13;;
39128;SDS011;24864;49.940;19.770;2023-10-08T14:12:03;3.55;;;1.20;;
39128;SDS011;24864;49.940;19.770;2023-10-08T14:14:33;2.33;;;1.00;;
39128;SDS011;24864;49.940;19.770;2023-10-08T14:17:02;4.22;;;1.38;;
39128;SDS011;24864;49.940;19.770;2023-10-08T14:19:34;4.05;;;1.42;;
39128;SDS011;24864;49.940;19.770;2023-10-08T14:22:08;2.88;;;1.13;;
39128;SDS011;24864;49.940;19.770;2023-10-08T14:24:41;5.53;;;2.15;;
39128;SDS011;24864;49.940;19.770;2023-10-08T14:27:13;2.72;;;1.20;;
39128;SDS011;24864;49.940;19.770;2023-10-08T14:29:43;3.42;;;1.42;;
39128;SDS011;24864;49.940;19.770;2023-10-08T14:32:16;2.83;;;1.00;;
39128;SDS011;24864;49.940;19.770;2023-10-08T14:34:46;2.67;;;0.90;;
39128;SDS011;24864;49.940;19.770;2023-10-08T14:37:33;2.40;;;1.00;;
39128;SDS011;24864;49.940;19.770;2023-10-08T14:40:19;3.40;;;1.10;;
39128;SDS011;24864;49.940;19.770;2023-10-08T14:43:05;1.80;;;0.82;;
39128;SDS011;24864;49.940;19.770;2023-10-08T14:45:38;1.88;;;1.00;;
39128;SDS011;24864;49.940;19.770;2023-10-08T14:48:07;2.95;;;1.20;;
39128;SDS011;24864;49.940;19.770;2023-10-08T14:50:39;4.40;;;1.17;;
39128;SDS011;24864;49.940;19.770;2023-10-08T14:53:10;3.70;;;1.27;;
39128;SDS011;24864;49.940;19.770;2023-10-08T14:55:38;3.15;;;1.15;;
39128;SDS011;24864;49.940;19.770;2023-10-08T14:58:07;2.67;;;1.17;;
39128;SDS011;24864;49.940;19.770;2023-10-08T15:00:37;3.05;;;1.02;;
39128;SDS011;24864;49.940;19.770;2023-10-08T15:03:08;3.40;;;1.02;;
39128;SDS011;24864;49.940;19.770;2023-10-08T15:05:39;5.28;;;1.40;;
39128;SDS011;24864;49.940;19.770;2023-10-08T15:08:08;4.32;;;1.27;;
39128;SDS011;24864;49.940;19.770;2023-10-08T15:10:40;3.03;;;1.02;;
39128;SDS011;24864;49.940;19.770;2023-10-08T15:13:08;2.72;;;1.17;;
39128;SDS011;24864;49.940;19.770;2023-10-08T15:15:38;2.97;;;1.30;;